Time;durP1;ratioP1;P1;durP2;ratioP2;P2;SDS_P1;SDS_P2;PMS_P1;PMS_P2;Temp;Humidity;BMP_temperature;BMP_pressure;BME280_temperature;BME280_humidity;BME280_pressure;Samples;Min_cycle;Max_cycle;Signal;HPM_P1;HPM_P2
2023/03/12 00:00:39;;;;;;;84.57;50.58;;;153.90;2252.80;;;;;;5060403;28;20045;-76
2023/03/12 00:03:05;;;;;;;90.75;56.42;;;154.10;2252.80;;;;;;5066892;28;20025;-77
2023/03/12 00:05:31;;;;;;;100.32;58.13;;;154.10;2252.80;;;;;;5071025;28;20024;-77
2023/03/12 00:07:58;;;;;;;96.38;58.63;;;154.20;2252.80;;;;;;5057156;28;20070;-78
2023/03/12 00:10:28;;;;;;;95.60;55.50;;;153.90;2252.80;;;;;;5062235;28;20037;-76
2023/03/12 00:13:00;;;;;;;71.75;44.70;;;153.60;2252.80;;;;;;5064106;28;20028;-80
2023/03/12 00:15:26;;;;;;;75.77;41.60;;;128.80;2252.80;;;;;;5054265;28;20021;-77
2023/03/12 00:17:51;;;;;;;69.30;38.22;;;128.90;2252.80;;;;;;5066829;28;20258;-78
2023/03/12 00:20:18;;;;;;;83.80;47.85;;;153.70;2252.80;;;;;;5060352;28;20046;-80
2023/03/12 00:22:44;;;;;;;86.97;50.65;;;153.70;2252.80;;;;;;5060926;28;20029;-79
2023/03/12 00:25:13;;;;;;;84.28;50.60;;;153.80;2252.80;;;;;;5067542;28;20384;-79
2023/03/12 00:27:39;;;;;;;89.22;50.38;;;153.80;2252.80;;;;;;5054003;28;20419;-77
2023/03/12 00:30:05;;;;;;;89.63;50.00;;;153.70;2252.80;;;;;;5063811;28;20033;-79
2023/03/12 00:32:32;;;;;;;88.40;52.35;;;128.80;2252.80;;;;;;5050152;28;20029;-80
2023/03/12 00:34:58;;;;;;;107.30;61.03;;;128.90;2252.80;;;;;;5051552;28;20060;-79
2023/03/12 00:37:24;;;;;;;103.45;59.17;;;128.90;2252.80;;;;;;5068306;28;20025;-77
2023/03/12 00:39:50;;;;;;;91.50;52.30;;;128.90;2252.80;;;;;;5056118;28;20035;-80
2023/03/12 00:42:16;;;;;;;81.68;50.03;;;153.60;2252.80;;;;;;5063201;28;20218;-79
2023/03/12 00:44:43;;;;;;;94.47;54.40;;;153.70;2252.80;;;;;;5063360;28;20409;-77
2023/03/12 00:47:21;;;;;;;86.55;52.70;;;153.60;2252.80;;;;;;5056961;28;20028;-81
2023/03/12 00:49:46;;;;;;;91.13;51.38;;;153.70;2252.80;;;;;;5040964;28;20066;-77
2023/03/12 00:52:12;;;;;;;67.97;40.55;;;128.90;2252.80;;;;;;5063735;28;20059;-79
2023/03/12 00:54:38;;;;;;;88.25;48.13;;;128.90;2252.80;;;;;;5062545;28;20430;-79
2023/03/12 00:57:04;;;;;;;92.70;53.05;;;128.60;2252.80;;;;;;5060611;28;20036;-78
2023/03/12 00:59:30;;;;;;;166.95;76.60;;;128.80;2252.80;;;;;;5044921;28;20464;-78
2023/03/12 01:01:56;;;;;;;170.15;76.78;;;128.80;2252.80;;;;;;5069214;28;20021;-79
2023/03/12 01:04:21;;;;;;;184.45;82.85;;;128.80;2252.80;;;;;;5063110;28;20416;-80
2023/03/12 01:06:51;;;;;;;250.52;109.95;;;128.80;2252.80;;;;;;5062194;28;20108;-81
2023/03/12 01:09:17;;;;;;;189.18;88.72;;;128.70;2252.80;;;;;;5054899;28;20064;-74
2023/03/12 01:11:43;;;;;;;204.45;96.57;;;128.60;2252.80;;;;;;5071140;28;20380;-76
2023/03/12 01:14:09;;;;;;;182.10;89.20;;;128.80;2252.80;;;;;;5054935;28;20358;-75
2023/03/12 01:16:34;;;;;;;170.15;85.65;;;128.70;2252.80;;;;;;5055390;28;20025;-76
2023/03/12 01:19:01;;;;;;;158.55;81.88;;;128.60;2252.80;;;;;;5056431;28;20326;-78
2023/03/12 01:21:28;;;;;;;150.02;78.18;;;128.40;2252.80;;;;;;5056046;28;20032;-76
2023/03/12 01:23:55;;;;;;;128.70;69.32;;;128.40;2252.80;;;;;;5055877;28;20104;-77
2023/03/12 01:26:21;;;;;;;138.30;71.70;;;128.50;2252.80;;;;;;5056237;28;20028;-76
2023/03/12 01:28:47;;;;;;;110.97;60.05;;;128.60;2252.80;;;;;;5054891;28;20041;-77
2023/03/12 01:31:15;;;;;;;84.78;44.85;;;128.70;2252.80;;;;;;5054653;28;20075;-75
2023/03/12 01:33:41;;;;;;;58.80;37.65;;;128.70;2252.80;;;;;;5054870;28;20021;-77
2023/03/12 01:36:26;;;;;;;41.47;24.77;;;128.70;2252.80;;;;;;5054843;28;20377;-76
2023/03/12 01:38:58;;;;;;;54.85;31.80;;;128.60;2252.80;;;;;;5054747;28;20527;-75
2023/03/12 01:41:25;;;;;;;58.92;34.20;;;128.50;2252.80;;;;;;5054796;28;20025;-76
2023/03/12 01:43:52;;;;;;;55.65;33.83;;;128.40;2252.80;;;;;;5054333;28;20032;-75
2023/03/12 01:46:29;;;;;;;57.00;32.42;;;128.50;2252.80;;;;;;5054466;28;20060;-73
2023/03/12 01:49:07;;;;;;;48.03;29.02;;;128.50;2252.80;;;;;;5054635;28;20039;-76
2023/03/12 01:51:44;;;;;;;27.40;15.32;;;128.50;2252.80;;;;;;5054738;28;20086;-75
2023/03/12 01:54:32;;;;;;;33.45;18.05;;;128.60;2252.80;;;;;;5054513;28;20032;-77
2023/03/12 01:56:59;;;;;;;52.75;28.35;;;128.60;2252.80;;;;;;5035009;28;20130;-77
2023/03/12 01:59:45;;;;;;;49.13;28.65;;;128.50;2252.80;;;;;;5054451;28;20029;-77
2023/03/12 02:02:12;;;;;;;38.60;21.27;;;128.50;2252.80;;;;;;5054412;28;20130;-76
2023/03/12 02:04:39;;;;;;;34.13;15.50;;;128.60;2252.80;;;;;;5054334;28;20025;-75
2023/03/12 02:07:12;;;;;;;34.50;16.13;;;128.70;2252.80;;;;;;5054000;28;20446;-73
2023/03/12 02:09:44;;;;;;;53.95;30.77;;;128.70;2252.80;;;;;;5053915;28;20044;-75
2023/03/12 02:12:10;;;;;;;59.58;32.38;;;128.60;2252.80;;;;;;5055204;28;20033;-76
2023/03/12 02:14:36;;;;;;;43.88;25.50;;;128.60;2252.80;;;;;;5053939;28;20477;-75
2023/03/12 02:17:03;;;;;;;55.55;26.20;;;128.70;2252.80;;;;;;5053979;28;20389;-75
2023/03/12 02:19:35;;;;;;;43.78;20.40;;;128.70;2252.80;;;;;;5055594;28;20033;-75
2023/03/12 02:22:02;;;;;;;45.20;22.38;;;128.60;2252.80;;;;;;5053748;28;20025;-75
2023/03/12 02:24:38;;;;;;;40.20;18.15;;;128.60;2252.80;;;;;;5053890;28;20059;-75
2023/03/12 02:27:04;;;;;;;43.80;19.05;;;128.60;2252.80;;;;;;5053647;28;20131;-74
2023/03/12 02:29:33;;;;;;;55.42;22.25;;;128.70;2252.80;;;;;;5053793;28;20060;-76
2023/03/12 02:32:01;;;;;;;80.85;29.92;;;128.80;2252.80;;;;;;5055001;28;20031;-80
2023/03/12 02:34:27;;;;;;;74.97;27.20;;;153.60;2252.80;;;;;;5053590;28;20124;-77
2023/03/12 02:36:53;;;;;;;25.85;13.57;;;128.90;2252.80;;;;;;5054771;28;20021;-78
2023/03/12 02:39:19;;;;;;;19.42;9.38;;;128.90;2252.80;;;;;;5054606;28;20443;-77
2023/03/12 02:41:52;;;;;;;18.40;9.43;;;128.80;2252.80;;;;;;5053489;28;20029;-75
2023/03/12 02:44:30;;;;;;;17.67;9.27;;;128.80;2252.80;;;;;;5053751;28;20025;-77
2023/03/12 02:46:58;;;;;;;20.75;9.77;;;128.80;2252.80;;;;;;5053473;28;20028;-76
2023/03/12 02:49:27;;;;;;;20.58;10.55;;;128.80;2252.80;;;;;;5053174;28;20040;-78
2023/03/12 02:51:53;;;;;;;21.48;10.82;;;128.80;2252.80;;;;;;5033402;28;20033;-80
2023/03/12 02:54:20;;;;;;;15.80;8.13;;;128.70;2252.80;;;;;;5034136;28;20037;-78
2023/03/12 02:56:47;;;;;;;11.93;6.60;;;128.70;2252.80;;;;;;5034509;28;20025;-77
2023/03/12 02:59:13;;;;;;;14.95;5.78;;;128.60;2252.80;;;;;;5033567;28;20045;-78
2023/03/12 03:01:40;;;;;;;8.73;5.22;;;128.60;2252.80;;;;;;5033319;28;20025;-76
2023/03/12 03:04:07;;;;;;;12.05;6.38;;;128.50;2252.80;;;;;;5033205;28;20084;-78
2023/03/12 03:06:35;;;;;;;18.15;8.23;;;128.50;2252.80;;;;;;5033258;28;20029;-78
2023/03/12 03:09:01;;;;;;;18.45;8.23;;;128.50;2252.80;;;;;;5032756;28;20172;-77
2023/03/12 03:11:26;;;;;;;23.08;9.98;;;128.30;2252.80;;;;;;5033265;28;20029;-77
2023/03/12 03:13:53;;;;;;;17.20;8.27;;;128.50;2252.80;;;;;;5033176;28;20041;-77
2023/03/12 03:16:19;;;;;;;16.23;7.43;;;128.40;2252.80;;;;;;5034235;28;20025;-77
2023/03/12 03:18:45;;;;;;;16.52;7.00;;;128.40;2252.80;;;;;;5032237;28;20496;-78
2023/03/12 03:21:15;;;;;;;16.45;8.13;;;128.50;2252.80;;;;;;5032818;28;20025;-76
2023/03/12 03:23:42;;;;;;;25.15;11.43;;;128.40;2252.80;;;;;;5034184;28;20104;-77
2023/03/12 03:26:09;;;;;;;15.52;7.25;;;128.40;2252.80;;;;;;5034525;28;20028;-78
2023/03/12 03:28:34;;;;;;;16.63;7.93;;;128.40;2252.80;;;;;;5032714;28;20062;-79
2023/03/12 03:31:01;;;;;;;10.68;4.47;;;128.40;2252.80;;;;;;5034013;28;20064;-77
2023/03/12 03:33:32;;;;;;;13.07;6.45;;;128.40;2252.80;;;;;;5032813;28;20029;-76
2023/03/12 03:35:58;;;;;;;11.82;6.50;;;128.40;2252.80;;;;;;5032827;28;20063;-76
2023/03/12 03:38:26;;;;;;;16.90;8.07;;;128.40;2252.80;;;;;;5033933;28;20357;-79
2023/03/12 03:40:52;;;;;;;21.77;9.75;;;128.40;2252.80;;;;;;5032634;28;20029;-77
2023/03/12 03:43:18;;;;;;;23.65;11.35;;;128.50;2252.80;;;;;;5034281;28;20052;-76
2023/03/12 03:45:44;;;;;;;22.75;9.93;;;128.50;2252.80;;;;;;5032523;28;20021;-79
2023/03/12 03:48:11;;;;;;;21.73;10.27;;;128.50;2252.80;;;;;;5032597;28;20037;-78
2023/03/12 03:50:38;;;;;;;18.27;8.23;;;128.50;2252.80;;;;;;5032624;28;20049;-78
2023/03/12 03:53:05;;;;;;;16.13;7.53;;;128.40;2252.80;;;;;;5033370;28;20032;-76
2023/03/12 03:55:31;;;;;;;17.52;8.55;;;128.40;2252.80;;;;;;5033694;28;20025;-77
2023/03/12 03:57:56;;;;;;;26.48;11.63;;;128.40;2252.80;;;;;;5032261;28;20036;-80
2023/03/12 04:00:22;;;;;;;16.00;8.13;;;128.40;2252.80;;;;;;5032522;28;20044;-76
2023/03/12 04:02:48;;;;;;;12.80;6.93;;;128.40;2252.80;;;;;;5032333;28;20033;-79
2023/03/12 04:05:18;;;;;;;13.70;7.20;;;128.30;2252.80;;;;;;5032350;28;20022;-78
2023/03/12 04:07:44;;;;;;;13.05;6.68;;;128.30;2252.80;;;;;;5032517;28;20026;-79
2023/03/12 04:10:10;;;;;;;10.65;5.80;;;128.30;2252.80;;;;;;5032153;28;20099;-79
2023/03/12 04:12:36;;;;;;;12.52;6.07;;;128.30;2252.80;;;;;;5033455;28;20033;-79
2023/03/12 04:15:02;;;;;;;9.95;5.63;;;128.30;2252.80;;;;;;5032135;28;20028;-79
2023/03/12 04:17:27;;;;;;;11.57;6.75;;;128.30;2252.80;;;;;;5033616;28;20048;-77
2023/03/12 04:19:53;;;;;;;19.25;9.50;;;128.30;2252.80;;;;;;5032274;28;20035;-79
2023/03/12 04:22:19;;;;;;;15.35;8.82;;;128.80;2252.80;;;;;;5032262;28;20488;-79
2023/03/12 04:24:44;;;;;;;12.93;6.50;;;128.30;2252.80;;;;;;5033324;28;20060;-79
2023/03/12 04:27:10;;;;;;;13.80;6.97;;;128.20;2252.80;;;;;;5031808;28;20117;-76
2023/03/12 04:29:38;;;;;;;11.98;7.00;;;128.20;2252.80;;;;;;5033645;28;20124;-75
2023/03/12 04:32:04;;;;;;;12.57;6.57;;;128.20;2252.80;;;;;;5061097;28;20014;-78
2023/03/12 04:34:30;;;;;;;10.18;5.82;;;128.10;2252.80;;;;;;5058558;28;20020;-77
2023/03/12 04:36:56;;;;;;;10.50;5.63;;;128.10;2252.80;;;;;;5038071;28;20031;-76
2023/03/12 04:39:21;;;;;;;9.65;4.70;;;128.20;2252.80;;;;;;5038935;28;20421;-77
2023/03/12 04:41:47;;;;;;;10.63;5.20;;;128.00;2252.80;;;;;;5036032;28;20033;-80
2023/03/12 04:44:13;;;;;;;10.35;4.82;;;128.10;2252.80;;;;;;5036336;28;20029;-77
2023/03/12 04:46:40;;;;;;;8.48;5.20;;;128.00;2252.80;;;;;;5036208;28;20075;-78
2023/03/12 04:49:06;;;;;;;8.15;4.35;;;103.30;2227.20;;;;;;5035736;28;20044;-77
2023/03/12 04:51:32;;;;;;;8.15;3.80;;;128.10;2252.80;;;;;;5034231;28;20025;-78
2023/03/12 04:53:58;;;;;;;7.90;4.45;;;128.10;2252.80;;;;;;5036522;28;20475;-79
2023/03/12 04:56:24;;;;;;;6.38;3.40;;;128.20;2252.80;;;;;;5035282;28;20055;-79
2023/03/12 04:58:50;;;;;;;7.22;4.70;;;128.20;2252.80;;;;;;5046794;28;20465;-79
2023/03/12 05:01:31;;;;;;;10.30;5.40;;;128.00;2252.80;;;;;;5055414;28;20029;-79
2023/03/12 05:03:57;;;;;;;12.95;6.90;;;128.10;2252.80;;;;;;5054554;28;20033;-79
2023/03/12 05:06:24;;;;;;;10.68;5.32;;;128.10;2252.80;;;;;;5055395;28;20110;-76
2023/03/12 05:08:49;;;;;;;9.95;5.32;;;128.10;2252.80;;;;;;5054711;28;20132;-80
2023/03/12 05:11:16;;;;;;;7.95;4.68;;;128.10;2252.80;;;;;;5055612;28;20116;-76
2023/03/12 05:13:42;;;;;;;13.88;7.03;;;128.20;2252.80;;;;;;5055420;28;20025;-79
2023/03/12 05:16:08;;;;;;;10.27;5.53;;;128.30;2252.80;;;;;;5055301;28;20033;-77
2023/03/12 05:18:35;;;;;;;9.05;4.70;;;128.30;2252.80;;;;;;5054995;28;20061;-79
2023/03/12 05:21:03;;;;;;;40.13;17.55;;;128.20;2252.80;;;;;;5056268;28;20425;-77
2023/03/12 05:23:29;;;;;;;34.70;14.65;;;128.40;2252.80;;;;;;5056510;28;20021;-78
2023/03/12 05:25:55;;;;;;;30.00;13.88;;;128.30;2252.80;;;;;;5056161;28;20025;-79
2023/03/12 05:28:26;;;;;;;25.02;12.40;;;128.40;2252.80;;;;;;5055059;28;20025;-76
2023/03/12 05:30:53;;;;;;;68.68;30.13;;;128.50;2252.80;;;;;;5054891;28;20375;-78
2023/03/12 05:33:19;;;;;;;67.68;30.40;;;128.40;2252.80;;;;;;5055007;28;20117;-77
2023/03/12 05:35:45;;;;;;;43.92;23.23;;;128.50;2252.80;;;;;;5055107;28;20053;-76
2023/03/12 05:38:10;;;;;;;65.63;31.52;;;128.50;2252.80;;;;;;5054630;28;20029;-79
2023/03/12 05:40:36;;;;;;;45.05;22.52;;;128.60;2252.80;;;;;;5054833;28;20033;-77
2023/03/12 05:43:02;;;;;;;30.27;14.25;;;128.60;2252.80;;;;;;5054246;28;20028;-79
2023/03/12 05:45:28;;;;;;;18.15;10.35;;;128.70;2252.80;;;;;;5055729;28;20353;-77
2023/03/12 05:47:53;;;;;;;21.73;10.48;;;128.80;2252.80;;;;;;5054350;28;20403;-79
2023/03/12 05:50:19;;;;;;;45.70;16.98;;;128.60;2252.80;;;;;;5055479;28;20108;-77
2023/03/12 05:52:45;;;;;;;23.58;12.02;;;128.50;2252.80;;;;;;5054874;28;20492;-79
2023/03/12 05:55:11;;;;;;;28.10;12.10;;;128.50;2252.80;;;;;;5054653;28;20174;-78
2023/03/12 05:57:37;;;;;;;36.70;13.10;;;128.60;2252.80;;;;;;5052918;28;20119;-76
2023/03/12 06:00:04;;;;;;;42.13;17.13;;;128.60;2252.80;;;;;;5036065;28;20083;-76
2023/03/12 06:02:29;;;;;;;19.60;8.32;;;128.60;2252.80;;;;;;5033781;28;20492;-79
2023/03/12 06:04:57;;;;;;;25.00;8.52;;;128.60;2252.80;;;;;;5034260;28;20109;-78
2023/03/12 06:07:23;;;;;;;11.70;5.53;;;128.40;2252.80;;;;;;5034627;28;20026;-79
2023/03/12 06:09:49;;;;;;;18.23;9.40;;;128.40;2252.80;;;;;;5035709;28;20473;-79
2023/03/12 06:12:15;;;;;;;12.63;6.72;;;128.30;2252.80;;;;;;5034374;28;20129;-80
2023/03/12 06:14:40;;;;;;;10.65;5.10;;;128.20;2252.80;;;;;;5034293;28;20022;-79
2023/03/12 06:17:06;;;;;;;64.70;27.85;;;128.20;2252.80;;;;;;5034567;28;20079;-79
2023/03/12 06:19:32;;;;;;;25.23;12.55;;;128.30;2252.80;;;;;;5034057;28;20461;-81
2023/03/12 06:21:58;;;;;;;38.25;17.52;;;128.20;2252.80;;;;;;5034182;28;20091;-76
2023/03/12 06:24:23;;;;;;;20.02;10.50;;;128.30;2252.80;;;;;;5035820;28;20404;-78
2023/03/12 06:26:49;;;;;;;12.05;6.95;;;128.10;2252.80;;;;;;5034062;28;20087;-79
2023/03/12 06:29:15;;;;;;;9.65;5.50;;;128.20;2252.80;;;;;;5034198;28;20041;-77
2023/03/12 06:31:42;;;;;;;11.02;5.47;;;128.30;2252.80;;;;;;5033615;28;20025;-78
2023/03/12 06:34:09;;;;;;;9.18;5.88;;;128.20;2252.80;;;;;;5034229;28;20033;-77
2023/03/12 06:36:35;;;;;;;7.80;5.07;;;128.20;2252.80;;;;;;5033900;28;20401;-77
2023/03/12 06:39:01;;;;;;;8.40;4.60;;;128.50;2252.80;;;;;;5033345;28;20033;-77
2023/03/12 06:41:26;;;;;;;7.25;4.68;;;128.50;2252.80;;;;;;5034922;28;20033;-77
2023/03/12 06:43:52;;;;;;;8.65;4.68;;;128.40;2252.80;;;;;;5033684;28;20465;-79
2023/03/12 06:46:24;;;;;;;6.22;4.25;;;128.50;2252.80;;;;;;5033486;28;20029;-76
2023/03/12 06:48:50;;;;;;;11.38;6.30;;;128.50;2252.80;;;;;;5034820;28;20017;-79
2023/03/12 06:51:16;;;;;;;9.10;5.55;;;128.70;2252.80;;;;;;5033787;28;20029;-76
2023/03/12 06:53:42;;;;;;;8.65;5.20;;;128.80;2252.80;;;;;;5032616;28;20056;-77
2023/03/12 06:56:08;;;;;;;9.30;5.18;;;128.80;2252.80;;;;;;5034810;28;20024;-76
2023/03/12 06:58:34;;;;;;;9.82;5.82;;;128.80;2252.80;;;;;;5041626;28;20037;-77
2023/03/12 07:01:00;;;;;;;12.93;7.95;;;128.90;2252.80;;;;;;5053167;28;20086;-77
2023/03/12 07:03:25;;;;;;;10.10;6.00;;;153.60;2252.80;;;;;;5053356;28;20033;-78
2023/03/12 07:05:54;;;;;;;11.52;5.60;;;153.60;2252.80;;;;;;5053382;28;20404;-78
2023/03/12 07:08:20;;;;;;;13.43;8.40;;;153.60;2252.80;;;;;;5053125;28;20123;-77
2023/03/12 07:10:45;;;;;;;13.40;7.90;;;153.70;2252.80;;;;;;5053109;28;20128;-78
2023/03/12 07:13:11;;;;;;;9.63;6.45;;;153.80;2252.80;;;;;;5054117;28;20415;-78
2023/03/12 07:15:37;;;;;;;8.40;5.63;;;153.80;2252.80;;;;;;5054308;28;20025;-78
2023/03/12 07:18:05;;;;;;;9.02;5.00;;;153.80;2252.80;;;;;;5052938;28;20495;-78
2023/03/12 07:20:31;;;;;;;7.45;4.38;;;153.80;2252.80;;;;;;5053257;28;20033;-79
2023/03/12 07:22:59;;;;;;;9.52;5.60;;;153.80;2252.80;;;;;;5053605;28;20024;-77
2023/03/12 07:25:24;;;;;;;9.50;5.40;;;154.00;2252.80;;;;;;5052806;28;20499;-76
2023/03/12 07:27:50;;;;;;;8.43;5.28;;;153.90;2252.80;;;;;;5052659;28;20029;-78
2023/03/12 07:30:16;;;;;;;9.35;5.80;;;154.00;2252.80;;;;;;5054026;28;20060;-79
2023/03/12 07:32:42;;;;;;;10.50;5.43;;;154.10;2252.80;;;;;;5052657;28;20465;-75
2023/03/12 07:35:08;;;;;;;7.45;4.88;;;154.10;2252.80;;;;;;5052603;28;20054;-81
2023/03/12 07:37:34;;;;;;;11.68;6.07;;;154.10;2252.80;;;;;;5052714;28;20520;-76
2023/03/12 07:40:00;;;;;;;15.40;7.63;;;154.10;2252.80;;;;;;5054025;28;20096;-77
2023/03/12 07:42:26;;;;;;;11.43;6.70;;;154.20;2252.80;;;;;;5052536;28;20025;-79
2023/03/12 07:44:51;;;;;;;13.02;7.18;;;154.20;2252.80;;;;;;5054176;28;20051;-80
2023/03/12 07:47:17;;;;;;;12.15;6.63;;;154.30;2252.80;;;;;;5054063;28;20445;-79
2023/03/12 07:49:43;;;;;;;7.78;4.00;;;154.30;2252.80;;;;;;5049454;28;20033;-80
2023/03/12 07:52:10;;;;;;;13.05;5.90;;;154.20;2252.80;;;;;;5032232;28;20021;-79
2023/03/12 07:54:37;;;;;;;14.02;8.57;;;154.10;2252.80;;;;;;5032088;28;20022;-81
2023/03/12 07:57:03;;;;;;;17.95;10.60;;;154.10;2252.80;;;;;;5032834;28;20025;-81
2023/03/12 07:59:29;;;;;;;24.05;12.10;;;154.10;2252.80;;;;;;5031762;28;20030;-80
2023/03/12 08:01:54;;;;;;;17.48;10.95;;;154.00;2252.80;;;;;;5032741;28;20548;-82
2023/03/12 08:04:20;;;;;;;19.30;11.25;;;154.10;2252.80;;;;;;5033094;28;20465;-80
2023/03/12 08:06:46;;;;;;;18.92;13.73;;;154.20;2252.80;;;;;;5032757;28;20033;-82
2023/03/12 08:09:12;;;;;;;22.67;15.05;;;154.30;2252.80;;;;;;5032369;28;20500;-81
2023/03/12 08:11:37;;;;;;;16.13;9.40;;;154.30;2252.80;;;;;;5032928;28;20033;-79
2023/03/12 08:14:04;;;;;;;12.13;9.32;;;154.40;2252.80;;;;;;5032693;28;20029;-82
2023/03/12 08:16:30;;;;;;;10.90;7.75;;;154.50;2252.80;;;;;;5032891;28;20021;-81
2023/03/12 08:18:55;;;;;;;10.43;6.05;;;154.50;2252.80;;;;;;5032735;28;20026;-79
2023/03/12 08:21:21;;;;;;;8.23;5.03;;;179.20;2252.80;;;;;;5034010;28;20372;-81
2023/03/12 08:23:47;;;;;;;8.40;5.25;;;179.30;2252.80;;;;;;5032541;28;20025;-80
2023/03/12 08:26:13;;;;;;;10.60;6.03;;;179.20;2252.80;;;;;;5033342;28;20053;-82
2023/03/12 08:28:39;;;;;;;14.85;7.68;;;179.40;2252.80;;;;;;5032424;28;20022;-80
2023/03/12 08:31:06;;;;;;;14.98;9.25;;;179.50;2252.80;;;;;;5032447;28;20124;-82
2023/03/12 08:33:32;;;;;;;15.40;8.95;;;179.70;2252.80;;;;;;5033107;28;20021;-82
2023/03/12 08:35:57;;;;;;;13.63;6.72;;;180.00;2252.80;;;;;;5034142;28;20104;-84
2023/03/12 08:38:23;;;;;;;11.55;7.13;;;180.00;2252.80;;;;;;5032437;28;20453;-84
2023/03/12 08:40:57;;;;;;;8.43;4.88;;;180.00;2252.80;;;;;;5032613;28;20040;-83
2023/03/12 08:43:23;;;;;;;11.02;7.18;;;179.70;2252.80;;;;;;5039627;28;20036;-79
2023/03/12 08:45:57;;;;;;;15.45;9.13;;;179.70;2252.80;;;;;;5052276;28;20053;-82
2023/03/12 08:48:24;;;;;;;16.00;9.60;;;179.60;2252.80;;;;;;5053745;28;20059;-81
2023/03/12 08:50:49;;;;;;;14.48;9.93;;;179.50;2252.80;;;;;;5053392;28;20033;-80
2023/03/12 08:53:16;;;;;;;17.85;14.00;;;179.30;2252.80;;;;;;5052209;28;20029;-82
2023/03/12 08:55:42;;;;;;;12.40;9.32;;;179.30;2252.80;;;;;;5052400;28;20112;-79
2023/03/12 08:58:08;;;;;;;14.15;8.07;;;179.30;2252.80;;;;;;5053611;28;20109;-81
2023/03/12 09:00:34;;;;;;;15.57;8.70;;;179.50;2252.80;;;;;;5053314;28;20399;-81
2023/03/12 09:03:00;;;;;;;17.05;10.52;;;179.60;2227.20;;;;;;5052197;28;20033;-80
2023/03/12 09:05:29;;;;;;;14.27;8.90;;;179.70;2252.80;;;;;;5052277;28;20025;-83
2023/03/12 09:07:57;;;;;;;13.65;7.45;;;179.70;2227.20;;;;;;5051910;28;20035;-81
2023/03/12 09:10:24;;;;;;;23.58;12.45;;;179.80;2252.80;;;;;;5053277;28;20201;-75
2023/03/12 09:12:50;;;;;;;13.48;9.25;;;179.90;2201.60;;;;;;5051399;28;20028;-77
2023/03/12 09:15:15;;;;;;;9.90;5.15;;;179.80;2252.80;;;;;;5052834;28;20029;-78
2023/03/12 09:17:41;;;;;;;10.90;7.40;;;179.70;2201.60;;;;;;5070698;28;20032;-80
2023/03/12 09:20:08;;;;;;;10.23;7.35;;;179.70;2252.80;;;;;;5062384;28;20052;-76
2023/03/12 09:22:38;;;;;;;11.57;8.95;;;179.70;2201.60;;;;;;5063639;28;20056;-76
2023/03/12 09:25:07;;;;;;;10.73;6.55;;;179.80;2252.80;;;;;;5070102;28;20540;-76
2023/03/12 09:27:45;;;;;;;15.82;10.95;;;179.70;2227.20;;;;;;5057904;28;20673;-75
2023/03/12 09:30:30;;;;;;;12.43;8.60;;;179.70;2227.20;;;;;;5068183;28;20483;-77
2023/03/12 09:32:56;;;;;;;9.50;6.90;;;179.70;2227.20;;;;;;5068802;28;20051;-77
2023/03/12 09:35:22;;;;;;;7.80;5.55;;;179.90;2252.80;;;;;;5059174;28;20053;-75
2023/03/12 09:37:50;;;;;;;11.75;7.57;;;179.90;2252.80;;;;;;5070685;28;20495;-77
2023/03/12 09:40:21;;;;;;;14.38;8.90;;;179.90;2252.80;;;;;;5063190;28;20033;-76
2023/03/12 09:42:54;;;;;;;11.98;7.32;;;180.00;2252.80;;;;;;5055970;28;20059;-77
2023/03/12 09:45:23;;;;;;;15.18;7.78;;;180.10;2227.20;;;;;;5072144;28;20086;-77
2023/03/12 09:48:14;;;;;;;10.15;6.25;;;180.10;2227.20;;;;;;5059277;28;20076;-75
2023/03/12 09:50:42;;;;;;;11.82;7.88;;;180.10;2176.00;;;;;;5062227;28;20476;-78
2023/03/12 09:53:35;;;;;;;12.55;7.78;;;180.00;2176.00;;;;;;5070156;28;20029;-77
2023/03/12 09:56:08;;;;;;;14.05;8.57;;;180.00;2201.60;;;;;;5047640;28;20020;-77
2023/03/12 09:58:37;;;;;;;11.40;7.35;;;180.10;2227.20;;;;;;5062986;28;20040;-76
2023/03/12 10:01:40;;;;;;;25.92;14.75;;;179.90;2124.80;;;;;;5069410;28;20086;-75
2023/03/12 10:04:27;;;;;;;20.83;10.85;;;179.90;2150.40;;;;;;5050087;28;20031;-77
2023/03/12 10:07:08;;;;;;;23.05;12.93;;;180.00;2201.60;;;;;;5061310;28;20029;-76
2023/03/12 10:09:53;;;;;;;24.65;14.52;;;204.90;2201.60;;;;;;5069833;28;20048;-77
2023/03/12 10:12:41;;;;;;;16.92;10.05;;;205.10;2252.80;;;;;;5063236;28;20029;-76
2023/03/12 10:15:34;;;;;;;7.75;4.97;;;205.00;2124.80;;;;;;5058182;28;20115;-76
2023/03/12 10:18:12;;;;;;;9.00;6.30;;;204.90;2073.60;;;;;;5048445;28;20028;-76
2023/03/12 10:20:51;;;;;;;15.18;8.57;;;204.90;2176.00;;;;;;5061955;28;20033;-78
2023/03/12 10:23:48;;;;;;;20.85;8.90;;;205.00;2124.80;;;;;;5070010;28;20042;-75
2023/03/12 10:26:24;;;;;;;15.10;8.10;;;205.10;2124.80;;;;;;5062145;28;20024;-75
2023/03/12 10:28:50;;;;;;;12.27;7.03;;;205.10;2099.20;;;;;;5060219;28;20033;-76
2023/03/12 10:31:25;;;;;;;10.25;6.43;;;205.20;2124.80;;;;;;5071033;28;20028;-75
2023/03/12 10:33:55;;;;;;;7.90;5.28;;;205.30;2099.20;;;;;;5053544;28;20117;-76
2023/03/12 10:36:28;;;;;;;9.98;8.25;;;205.40;2124.80;;;;;;5064986;28;20028;-78
2023/03/12 10:38:54;;;;;;;18.90;9.85;;;205.60;1996.80;;;;;;5059619;28;20025;-76
2023/03/12 10:41:24;;;;;;;8.52;4.95;;;205.70;2022.40;;;;;;5069725;28;20031;-77
2023/03/12 10:43:50;;;;;;;6.88;4.38;;;205.70;2099.20;;;;;;5059199;28;20027;-77
2023/03/12 10:46:49;;;;;;;10.93;6.95;;;230.40;2073.60;;;;;;5065606;28;20546;-77
2023/03/12 10:49:28;;;;;;;14.27;8.90;;;230.40;2073.60;;;;;;5069428;28;20033;-78
2023/03/12 10:52:15;;;;;;;12.65;7.88;;;230.70;2073.60;;;;;;5058896;28;20024;-77
2023/03/12 10:54:43;;;;;;;9.65;7.28;;;230.70;1971.20;;;;;;5060694;28;20044;-78
2023/03/12 10:57:10;;;;;;;10.45;6.45;;;230.70;1945.60;;;;;;5053115;28;20032;-78
2023/03/12 10:59:41;;;;;;;9.85;6.53;;;230.80;1945.60;;;;;;5055982;28;20032;-78
2023/03/12 11:02:25;;;;;;;7.35;4.82;;;231.00;1945.60;;;;;;5065062;28;20036;-77
2023/03/12 11:04:52;;;;;;;10.88;7.50;;;231.30;2048.00;;;;;;5067536;28;20016;-78
2023/03/12 11:07:26;;;;;;;21.42;11.52;;;256.20;1971.20;;;;;;5057519;28;20025;-78
2023/03/12 11:10:07;;;;;;;16.67;9.05;;;256.50;2022.40;;;;;;5068375;28;20469;-78
2023/03/12 11:12:35;;;;;;;10.75;7.00;;;256.70;1996.80;;;;;;5063619;28;20029;-78
2023/03/12 11:15:22;;;;;;;8.27;5.55;;;256.60;1971.20;;;;;;5057901;28;20048;-78
2023/03/12 11:17:47;;;;;;;24.10;12.93;;;256.20;2022.40;;;;;;5042272;28;20056;-78
2023/03/12 11:20:28;;;;;;;11.93;7.55;;;256.40;1945.60;;;;;;5064105;28;20500;-78
2023/03/12 11:22:54;;;;;;;6.70;5.00;;;256.80;1996.80;;;;;;5066745;28;20028;-79
2023/03/12 11:25:26;;;;;;;7.25;3.95;;;256.80;1971.20;;;;;;5071365;28;20058;-78
2023/03/12 11:27:54;;;;;;;9.25;4.88;;;281.60;1996.80;;;;;;5058064;28;20028;-76
2023/03/12 11:30:25;;;;;;;9.75;6.00;;;256.70;1817.60;;;;;;5064396;28;20419;-76
2023/03/12 11:32:51;;;;;;;14.10;8.68;;;281.70;1920.00;;;;;;5067599;28;20031;-76
2023/03/12 11:35:23;;;;;;;5.07;3.47;;;282.00;1945.60;;;;;;5057246;28;20104;-78
2023/03/12 11:38:20;;;;;;;6.32;2.90;;;281.90;1843.20;;;;;;5067689;28;20033;-77
2023/03/12 11:41:15;;;;;;;8.32;5.72;;;281.80;1868.80;;;;;;5053217;28;20059;-78
2023/03/12 11:43:55;;;;;;;15.52;8.45;;;282.20;1843.20;;;;;;5040861;28;20074;-77
2023/03/12 11:46:27;;;;;;;12.77;6.28;;;282.50;1792.00;;;;;;5069560;28;20013;-76
2023/03/12 11:49:38;;;;;;;22.47;14.43;;;307.20;1766.40;;;;;;5075245;28;20036;-76
2023/03/12 11:52:10;;;;;;;6.78;4.72;;;;;;;;;;5036179;28;20036;-76
2023/03/12 11:55:15;;;;;;;13.32;8.13;;;307.90;1868.80;;;;;;5062512;28;20141;-76
2023/03/12 11:58:11;;;;;;;11.65;7.47;;;332.80;1868.80;;;;;;5041663;28;20488;-76
2023/03/12 12:01:16;;;;;;;13.95;7.68;;;332.80;1792.00;;;;;;5042643;28;20649;-79
2023/03/12 12:03:47;;;;;;;20.42;13.48;;;332.80;1740.80;;;;;;5040347;28;20469;-78
2023/03/12 12:06:43;;;;;;;12.75;6.50;;;332.80;1766.40;;;;;;5071431;28;20033;-78
2023/03/12 12:09:14;;;;;;;6.93;4.55;;;308.10;1715.20;;;;;;5073866;28;20127;-77
2023/03/12 12:11:46;;;;;;;6.03;3.97;;;332.90;1766.40;;;;;;5040913;28;20115;-77
2023/03/12 12:14:49;;;;;;;9.43;5.07;;;333.20;1766.40;;;;;;5065223;28;20096;-77
2023/03/12 12:17:29;;;;;;;;;;;333.20;1792.00;;;;;;5044384;28;20076;-78